createdAt,value
2019-03-29T00:01:22.212Z,72.30
2019-03-29T00:03:42.870Z,72.30
2019-03-29T00:06:03.598Z,72.80
2019-03-29T00:08:24.436Z,73.20
2019-03-29T00:10:45.167Z,73.20
2019-03-29T00:13:05.678Z,73.60
2019-03-29T00:15:26.191Z,73.60
2019-03-29T00:17:46.638Z,73.90
2019-03-29T00:20:07.801Z,74.10
2019-03-29T00:22:38.641Z,73.90
2019-03-29T00:24:59.209Z,73.80
2019-03-29T00:27:25.740Z,73.90
2019-03-29T00:29:46.320Z,74.20
2019-03-29T00:32:06.943Z,74.50
2019-03-29T00:34:29.176Z,74.80
2019-03-29T00:36:49.674Z,75.00
2019-03-29T00:39:10.219Z,75.10
2019-03-29T00:41:30.740Z,75.20
2019-03-29T00:43:51.321Z,74.90
2019-03-29T00:46:12.026Z,74.80
2019-03-29T00:48:35.489Z,74.80
2019-03-29T00:50:54.771Z,75.30
2019-03-29T00:53:15.488Z,76.10
2019-03-29T00:55:36.026Z,76.80
2019-03-29T00:57:56.916Z,77.20
2019-03-29T01:00:17.881Z,77.20
2019-03-29T01:02:38.502Z,77.20
2019-03-29T01:04:59.706Z,77.10
2019-03-29T01:07:25.771Z,77.00
2019-03-29T01:09:46.333Z,76.70
2019-03-29T01:12:06.969Z,76.90
2019-03-29T01:14:27.773Z,77.30
2019-03-29T01:16:48.414Z,78.20
2019-03-29T01:19:08.945Z,77.60
2019-03-29T01:21:30.524Z,78.10
2019-03-29T01:23:51.872Z,78.30
2019-03-29T01:26:12.817Z,78.40
2019-03-29T01:28:34.884Z,78.30
2019-03-29T01:30:55.463Z,78.30
2019-03-29T01:33:16.018Z,78.30
2019-03-29T01:35:36.455Z,79.50
2019-03-29T01:37:56.886Z,78.60
2019-03-29T01:40:19.487Z,78.30
2019-03-29T01:42:39.780Z,78.20
2019-03-29T01:45:00.384Z,78.20
2019-03-29T01:47:21.093Z,78.70
2019-03-29T01:49:42.617Z,78.80
2019-03-29T01:52:03.371Z,78.90
2019-03-29T01:54:23.874Z,79.10
2019-03-29T01:56:44.392Z,79.20
2019-03-29T01:59:05.194Z,79.40
2019-03-29T02:01:25.774Z,79.40
2019-03-29T02:03:47.168Z,79.90
2019-03-29T02:06:07.728Z,79.90
2019-03-29T02:08:35.771Z,80.20
2019-03-29T02:10:50.149Z,80.80
2019-03-29T02:13:10.727Z,81.30
2019-03-29T02:15:31.185Z,81.90
2019-03-29T02:17:51.784Z,82.40
2019-03-29T02:20:13.209Z,82.50
2019-03-29T02:22:33.824Z,82.60
2019-03-29T02:24:54.409Z,83.00
2019-03-29T02:27:14.978Z,83.20
2019-03-29T02:29:36.239Z,83.30
2019-03-29T02:31:57.470Z,83.80
2019-03-29T02:34:17.980Z,84.20
2019-03-29T02:36:38.495Z,84.20
2019-03-29T02:38:59.456Z,84.40
2019-03-29T02:41:20.035Z,84.50
2019-03-29T02:43:40.592Z,84.50
2019-03-29T02:46:01.161Z,84.60
2019-03-29T02:48:21.734Z,84.70
2019-03-29T02:50:42.261Z,85.20
2019-03-29T02:53:02.826Z,85.30
2019-03-29T02:55:23.691Z,85.30
2019-03-29T02:57:44.337Z,85.30
2019-03-29T03:00:07.773Z,85.50
2019-03-29T03:02:28.277Z,85.60
2019-03-29T03:04:48.770Z,85.50
2019-03-29T03:07:13.177Z,85.70
2019-03-29T03:09:33.748Z,85.50
2019-03-29T03:11:54.353Z,85.50
2019-03-29T03:14:14.872Z,85.70
2019-03-29T03:16:35.487Z,85.50
2019-03-29T03:18:56.160Z,85.40
2019-03-29T03:21:16.678Z,85.30
2019-03-29T03:23:38.342Z,85.60
2019-03-29T03:25:58.901Z,86.30
2019-03-29T03:28:19.525Z,86.40
2019-03-29T03:30:40.076Z,86.30
2019-03-29T03:33:00.624Z,86.40
2019-03-29T03:35:21.145Z,86.90
2019-03-29T03:37:41.774Z,87.00
2019-03-29T03:40:02.287Z,87.00
2019-03-29T03:42:22.823Z,87.00
2019-03-29T03:44:43.461Z,87.90
2019-03-29T03:47:04.050Z,87.40
2019-03-29T03:49:24.734Z,87.10
2019-03-29T03:51:45.335Z,87.00
2019-03-29T03:54:18.395Z,87.00
2019-03-29T03:56:39.442Z,86.70
2019-03-29T03:59:00.254Z,87.00
2019-03-29T04:01:20.781Z,87.40
2019-03-29T04:03:41.341Z,87.60
2019-03-29T04:06:01.932Z,87.80
2019-03-29T04:08:22.504Z,87.80
2019-03-29T04:10:44.074Z,87.90
2019-03-29T04:13:04.635Z,88.20
2019-03-29T04:15:25.359Z,88.40
2019-03-29T04:17:45.903Z,88.10
2019-03-29T04:20:07.227Z,88.00
2019-03-29T04:22:27.743Z,88.10
2019-03-29T04:24:48.440Z,88.20
2019-03-29T04:27:09.125Z,88.60
2019-03-29T04:29:29.650Z,88.80
2019-03-29T04:31:50.187Z,88.50
2019-03-29T04:34:10.684Z,88.40
2019-03-29T04:36:38.286Z,88.30
2019-03-29T04:38:58.819Z,88.50
2019-03-29T04:41:19.334Z,88.90
2019-03-29T04:43:40.096Z,89.00
2019-03-29T04:46:00.698Z,88.80
2019-03-29T04:48:22.348Z,89.20
2019-03-29T04:50:42.853Z,89.40
2019-03-29T04:53:04.528Z,89.50
2019-03-29T04:55:24.969Z,89.50
2019-03-29T04:57:45.535Z,89.20
2019-03-29T05:00:09.137Z,89.10
2019-03-29T05:02:29.709Z,89.30
2019-03-29T05:04:50.219Z,89.20
2019-03-29T05:07:10.835Z,89.10
2019-03-29T05:09:31.328Z,89.30
2019-03-29T05:11:51.948Z,88.80
2019-03-29T05:14:12.538Z,88.80
2019-03-29T05:16:33.152Z,88.70
2019-03-29T05:18:53.689Z,88.80
2019-03-29T05:21:14.202Z,88.90
2019-03-29T05:23:34.671Z,88.10
2019-03-29T05:25:55.194Z,87.90
2019-03-29T05:28:15.925Z,87.70
2019-03-29T05:30:36.571Z,87.90
2019-03-29T05:32:57.033Z,88.10
2019-03-29T05:35:17.665Z,87.80
2019-03-29T05:37:38.297Z,87.40
2019-03-29T05:39:58.896Z,86.70
2019-03-29T05:42:19.523Z,86.70
2019-03-29T05:44:40.948Z,86.30
2019-03-29T05:47:01.697Z,85.60
2019-03-29T05:49:22.438Z,85.40
2019-03-29T05:51:43.005Z,85.40
2019-03-29T05:54:03.683Z,85.20
2019-03-29T05:56:24.344Z,85.20
2019-03-29T05:58:44.811Z,84.90
2019-03-29T06:01:05.437Z,83.90
2019-03-29T06:03:31.980Z,83.30
2019-03-29T06:05:52.508Z,82.60
2019-03-29T06:08:13.178Z,82.50
2019-03-29T06:10:33.673Z,82.00
2019-03-29T06:12:54.354Z,81.50
2019-03-29T06:15:15.210Z,80.60
2019-03-29T06:17:47.986Z,80.50
2019-03-29T06:19:58.297Z,79.70
2019-03-29T06:22:21.959Z,79.00
2019-03-29T06:24:42.508Z,78.00
2019-03-29T06:27:03.122Z,76.90
2019-03-29T06:31:55.840Z,74.40
2019-03-29T06:34:16.488Z,64.50
2019-03-29T06:36:37.615Z,58.40
2019-03-29T06:38:57.891Z,55.50
2019-03-29T06:41:17.909Z,60.90
2019-03-29T06:43:38.167Z,63.30
2019-03-29T06:46:00.085Z,63.50
2019-03-29T06:48:20.130Z,63.90
2019-03-29T06:50:41.161Z,66.00
2019-03-29T06:53:01.200Z,66.80
2019-03-29T06:55:21.439Z,68.00
2019-03-29T06:57:41.660Z,68.90
2019-03-29T07:00:02.440Z,69.20
2019-03-29T07:02:24.132Z,68.50
2019-03-29T07:04:44.177Z,68.20
2019-03-29T07:07:04.868Z,67.70
2019-03-29T07:09:25.456Z,67.30
2019-03-29T07:11:45.963Z,67.40
2019-03-29T07:14:06.570Z,66.40
2019-03-29T07:16:26.591Z,66.40
2019-03-29T07:18:47.084Z,64.70
2019-03-29T07:21:20.979Z,64.70
2019-03-29T07:23:30.659Z,64.00
2019-03-29T07:25:51.572Z,62.80
2019-03-29T07:28:16.037Z,62.90
2019-03-29T07:30:36.116Z,62.70
2019-03-29T07:32:56.248Z,62.10
2019-03-29T07:35:16.242Z,60.50
2019-03-29T07:37:37.437Z,53.60
2019-03-29T07:39:57.758Z,53.10
2019-03-29T07:42:18.047Z,53.50
2019-03-29T07:44:43.714Z,52.40
2019-03-29T07:47:03.978Z,48.60
2019-03-29T07:49:24.204Z,47.50
2019-03-29T07:51:44.460Z,48.60
2019-03-29T07:54:04.935Z,47.30
2019-03-29T07:56:25.256Z,49.40
2019-03-29T07:58:45.489Z,50.00
2019-03-29T08:01:05.747Z,52.10
2019-03-29T08:03:26.180Z,51.50
2019-03-29T08:05:46.410Z,55.90
2019-03-29T08:08:06.675Z,56.90
2019-03-29T08:10:30.950Z,57.10
2019-03-29T08:12:50.526Z,57.70
2019-03-29T08:15:11.180Z,58.70
2019-03-29T08:17:31.435Z,58.50
2019-03-29T08:20:12.894Z,57.30
2019-03-29T08:22:13.871Z,51.90
2019-03-29T08:24:34.441Z,49.10
2019-03-29T08:26:54.321Z,49.00
2019-03-29T08:29:14.783Z,48.40
2019-03-29T08:31:35.221Z,48.50
2019-03-29T08:33:55.835Z,48.70
2019-03-29T08:36:16.351Z,48.00
2019-03-29T08:38:37.629Z,46.90
2019-03-29T08:40:57.872Z,46.60
2019-03-29T08:43:18.324Z,47.00
2019-03-29T08:45:38.864Z,46.80
2019-03-29T08:47:58.831Z,46.80
2019-03-29T08:50:19.332Z,46.30
2019-03-29T08:52:39.547Z,47.10
2019-03-29T08:54:59.743Z,46.10
2019-03-29T08:57:20.399Z,45.60
2019-03-29T08:59:40.413Z,45.70
2019-03-29T09:02:01.041Z,45.40
2019-03-29T09:04:21.877Z,44.10
2019-03-29T09:06:52.673Z,41.60
2019-03-29T09:09:06.452Z,39.50
2019-03-29T09:11:26.841Z,39.70
2019-03-29T09:13:46.942Z,40.30
2019-03-29T09:16:06.969Z,38.30
2019-03-29T09:18:27.001Z,36.90
2019-03-29T09:20:47.074Z,37.50
2019-03-29T09:23:10.302Z,39.90
2019-03-29T09:25:28.887Z,39.90
2019-03-29T09:27:49.247Z,37.90
2019-03-29T09:30:09.643Z,38.70
2019-03-29T09:32:30.718Z,38.70
2019-03-29T09:34:50.938Z,39.80
2019-03-29T09:37:11.117Z,39.50
2019-03-29T09:39:31.291Z,40.90
2019-03-29T09:41:51.701Z,41.50
2019-03-29T09:44:11.962Z,42.60
2019-03-29T09:46:33.110Z,42.10
2019-03-29T09:48:53.546Z,41.80
2019-03-29T09:51:14.030Z,42.70
2019-03-29T09:53:34.299Z,43.70
2019-03-29T09:55:54.756Z,43.10
2019-03-29T09:58:20.977Z,42.90
2019-03-29T10:00:41.242Z,43.60
2019-03-29T10:03:01.481Z,43.20
2019-03-29T10:05:22.007Z,41.00
2019-03-29T10:07:42.210Z,39.80
2019-03-29T10:10:02.631Z,40.80
2019-03-29T10:12:24.132Z,41.10
2019-03-29T10:14:44.622Z,41.40
2019-03-29T10:17:04.842Z,42.40
2019-03-29T10:19:25.149Z,42.50
2019-03-29T10:21:45.388Z,41.80
2019-03-29T10:24:05.784Z,42.00
2019-03-29T10:26:26.062Z,43.40
2019-03-29T10:28:46.216Z,43.80
2019-03-29T10:31:06.599Z,43.50
2019-03-29T10:33:27.004Z,43.70
2019-03-29T10:35:51.898Z,43.50
2019-03-29T10:38:09.376Z,43.20
2019-03-29T10:40:29.596Z,42.70
2019-03-29T10:42:57.494Z,42.30
2019-03-29T10:45:12.175Z,41.70
2019-03-29T10:47:43.287Z,39.20
2019-03-29T10:49:54.711Z,38.30
2019-03-29T10:52:15.029Z,38.10
2019-03-29T10:54:35.283Z,37.50
2019-03-29T10:56:55.600Z,38.30
2019-03-29T10:59:26.571Z,36.40
2019-03-29T11:01:38.774Z,35.80
2019-03-29T11:03:58.809Z,35.10
2019-03-29T11:06:19.112Z,36.60
2019-03-29T11:08:39.467Z,35.10
2019-03-29T11:10:59.742Z,33.40
2019-03-29T11:13:20.065Z,33.80
2019-03-29T11:15:40.289Z,33.20
2019-03-29T11:18:00.657Z,32.80
2019-03-29T11:20:21.962Z,33.30
2019-03-29T11:22:42.204Z,33.10
2019-03-29T11:25:02.590Z,33.20
2019-03-29T11:27:23.122Z,34.20
2019-03-29T11:29:43.470Z,34.30
2019-03-29T11:32:03.689Z,35.50
2019-03-29T11:34:24.014Z,33.50
2019-03-29T11:36:44.279Z,33.80
2019-03-29T11:39:06.973Z,33.20
2019-03-29T11:41:27.215Z,34.40
2019-03-29T11:43:47.280Z,35.40
2019-03-29T11:46:07.526Z,33.50
2019-03-29T11:48:29.572Z,33.80
2019-03-29T11:50:49.727Z,33.80
2019-03-29T11:53:10.090Z,32.00
2019-03-29T11:55:33.438Z,31.90
2019-03-29T11:57:55.786Z,33.50
2019-03-29T12:00:19.584Z,34.80
2019-03-29T12:02:39.852Z,35.20
2019-03-29T12:04:59.842Z,33.20
2019-03-29T12:07:20.255Z,33.10
2019-03-29T12:09:40.561Z,31.40
2019-03-29T12:12:00.720Z,31.90
2019-03-29T12:14:21.986Z,32.60
2019-03-29T12:16:42.274Z,32.40
2019-03-29T12:19:02.572Z,33.20
2019-03-29T12:21:22.862Z,34.00
2019-03-29T12:23:43.020Z,32.10
2019-03-29T12:26:03.353Z,31.60
2019-03-29T12:28:23.667Z,33.10
2019-03-29T12:30:44.775Z,33.40
2019-03-29T12:33:05.139Z,31.60
2019-03-29T12:35:25.585Z,31.70
2019-03-29T12:37:45.896Z,30.60
2019-03-29T12:40:08.307Z,31.00
2019-03-29T12:42:28.588Z,30.60
2019-03-29T12:44:48.558Z,30.40
2019-03-29T12:47:08.991Z,29.90
2019-03-29T12:49:29.250Z,30.50
2019-03-29T12:51:49.395Z,29.50
2019-03-29T12:54:12.127Z,27.90
2019-03-29T12:56:31.543Z,28.60
2019-03-29T12:58:51.966Z,28.60
2019-03-29T13:01:12.348Z,28.20
2019-03-29T13:03:32.885Z,28.50
2019-03-29T13:05:53.169Z,28.50
2019-03-29T13:08:13.421Z,26.80
2019-03-29T13:10:33.577Z,27.40
2019-03-29T13:12:53.798Z,27.20
2019-03-29T13:15:14.197Z,27.60
2019-03-29T13:17:34.694Z,28.20
2019-03-29T13:19:55.065Z,27.30
2019-03-29T13:22:15.390Z,28.90
2019-03-29T13:24:35.589Z,28.90
2019-03-29T13:26:55.729Z,29.20
2019-03-29T13:29:16.054Z,28.80
2019-03-29T13:31:36.372Z,28.40
2019-03-29T13:33:56.915Z,29.50
2019-03-29T13:36:17.133Z,28.70
2019-03-29T13:38:37.464Z,28.80
2019-03-29T13:40:57.716Z,28.90
2019-03-29T13:43:18.077Z,27.70
2019-03-29T13:45:38.533Z,28.30
2019-03-29T13:47:58.787Z,30.90
2019-03-29T13:50:19.161Z,30.80
2019-03-29T13:52:39.450Z,30.20
2019-03-29T13:54:59.848Z,29.90
2019-03-29T13:57:20.258Z,30.30
2019-03-29T13:59:40.540Z,31.70
2019-03-29T14:02:01.193Z,29.80
2019-03-29T14:04:21.358Z,29.30
2019-03-29T14:06:41.600Z,29.10
2019-03-29T14:09:01.784Z,30.60
2019-03-29T14:11:23.503Z,30.80
2019-03-29T14:13:43.745Z,29.30
2019-03-29T14:16:04.065Z,29.00
2019-03-29T14:18:24.452Z,28.20
2019-03-29T14:20:44.711Z,28.40
2019-03-29T14:23:05.098Z,28.20
2019-03-29T14:25:25.317Z,28.30
2019-03-29T14:27:45.610Z,28.80
2019-03-29T14:30:07.896Z,28.20
2019-03-29T14:32:28.126Z,27.10
2019-03-29T14:34:48.023Z,27.10
2019-03-29T14:37:08.017Z,28.80
2019-03-29T14:39:27.903Z,31.20
2019-03-29T14:41:48.054Z,31.40
2019-03-29T14:44:07.947Z,31.00
2019-03-29T14:46:27.842Z,31.20
2019-03-29T14:48:47.794Z,31.00
2019-03-29T14:51:07.705Z,31.60
2019-03-29T14:53:27.682Z,30.80
2019-03-29T14:55:47.926Z,30.50
2019-03-29T14:58:08.236Z,30.00
2019-03-29T15:00:39.961Z,30.10
2019-03-29T15:03:00.212Z,30.00
2019-03-29T15:05:20.544Z,29.90
2019-03-29T15:07:42.783Z,31.20
2019-03-29T15:10:05.032Z,32.50
2019-03-29T15:12:25.243Z,31.50
2019-03-29T15:14:45.217Z,31.40
2019-03-29T15:17:05.560Z,32.20
2019-03-29T15:19:25.581Z,30.80
2019-03-29T15:21:45.536Z,30.90
2019-03-29T15:24:05.703Z,31.00
2019-03-29T15:26:25.761Z,30.00
2019-03-29T15:28:45.709Z,29.40
2019-03-29T15:31:08.194Z,29.60
2019-03-29T15:33:29.458Z,30.00
2019-03-29T15:35:50.863Z,29.70
2019-03-29T15:38:11.214Z,30.90
2019-03-29T15:40:31.538Z,30.00
2019-03-29T15:42:51.812Z,30.60
2019-03-29T15:45:20.218Z,30.60
2019-03-29T15:47:35.749Z,30.90
2019-03-29T15:49:56.618Z,32.40
2019-03-29T15:52:16.995Z,33.90
2019-03-29T15:54:37.207Z,34.60
2019-03-29T15:56:57.350Z,34.80
2019-03-29T15:59:17.611Z,35.10
2019-03-29T16:01:38.901Z,35.80
2019-03-29T16:03:59.284Z,36.40
2019-03-29T16:06:19.529Z,37.10
2019-03-29T16:08:39.864Z,38.00
2019-03-29T16:11:00.355Z,38.90
2019-03-29T16:13:22.230Z,38.70
2019-03-29T16:15:42.568Z,38.70
2019-03-29T16:18:02.936Z,39.20
2019-03-29T16:20:23.621Z,39.80
2019-03-29T16:22:43.900Z,39.60
2019-03-29T16:25:08.399Z,40.00
2019-03-29T16:27:28.749Z,40.20
2019-03-29T16:29:50.092Z,40.20
2019-03-29T16:32:10.404Z,40.70
2019-03-29T16:34:30.657Z,40.90
2019-03-29T16:36:50.996Z,40.80
2019-03-29T16:39:11.160Z,40.80
2019-03-29T16:41:31.379Z,40.90
2019-03-29T16:43:51.576Z,41.20
2019-03-29T16:46:12.021Z,41.50
2019-03-29T16:48:32.400Z,41.40
2019-03-29T16:50:52.639Z,41.40
2019-03-29T16:53:12.911Z,41.60
2019-03-29T16:55:33.578Z,41.70
2019-03-29T16:57:53.813Z,41.70
2019-03-29T17:00:15.701Z,41.90
2019-03-29T17:02:36.223Z,42.20
2019-03-29T17:04:56.457Z,42.40
2019-03-29T17:07:16.618Z,42.50
2019-03-29T17:09:36.888Z,42.90
2019-03-29T17:11:57.557Z,43.10
2019-03-29T17:14:18.126Z,43.10
2019-03-29T17:16:38.755Z,43.30
2019-03-29T17:18:58.638Z,43.70
2019-03-29T17:21:18.797Z,43.70
2019-03-29T17:23:42.448Z,44.30
2019-03-29T17:26:02.998Z,44.40
2019-03-29T17:28:23.168Z,44.60
2019-03-29T17:30:45.218Z,44.80
2019-03-29T17:33:05.901Z,45.20
2019-03-29T17:35:26.451Z,45.40
2019-03-29T17:37:47.040Z,45.50
2019-03-29T17:40:08.668Z,45.70
2019-03-29T17:42:28.773Z,46.40
2019-03-29T17:44:48.745Z,46.60
2019-03-29T17:47:09.284Z,47.10
2019-03-29T17:49:29.963Z,47.60
2019-03-29T17:51:50.599Z,47.70
2019-03-29T17:54:10.723Z,48.20
2019-03-29T17:56:31.390Z,49.00
2019-03-29T17:58:52.164Z,49.80
2019-03-29T18:01:13.108Z,51.10
2019-03-29T18:03:33.210Z,50.90
2019-03-29T18:05:53.416Z,51.60
2019-03-29T18:08:13.950Z,52.10
2019-03-29T18:10:34.510Z,52.60
2019-03-29T18:12:55.106Z,52.90
2019-03-29T18:15:15.967Z,52.90
2019-03-29T18:17:36.442Z,53.60
2019-03-29T18:19:57.044Z,53.70
2019-03-29T18:22:17.074Z,54.00
2019-03-29T18:24:37.604Z,54.50
2019-03-29T18:26:58.229Z,55.10
2019-03-29T18:29:18.353Z,54.60
2019-03-29T18:31:39.354Z,54.60
2019-03-29T18:34:01.727Z,55.10
2019-03-29T18:36:22.635Z,55.50
2019-03-29T18:38:44.700Z,56.30
2019-03-29T18:41:04.727Z,56.40
2019-03-29T18:43:25.299Z,56.90
2019-03-29T18:45:45.985Z,57.30
2019-03-29T18:48:06.534Z,57.50
2019-03-29T18:50:27.076Z,57.50
2019-03-29T18:52:47.621Z,58.10
2019-03-29T18:55:08.350Z,58.70
2019-03-29T18:57:28.946Z,59.00
2019-03-29T18:59:49.499Z,59.50
2019-03-29T19:02:10.264Z,59.70
2019-03-29T19:04:30.806Z,60.20
2019-03-29T19:06:51.550Z,60.40
2019-03-29T19:09:12.084Z,60.60
2019-03-29T19:11:32.024Z,60.70
2019-03-29T19:13:52.578Z,60.20
2019-03-29T19:16:14.136Z,60.60
2019-03-29T19:18:34.913Z,60.70
2019-03-29T19:20:57.415Z,61.10
2019-03-29T19:23:18.654Z,61.10
2019-03-29T19:25:39.212Z,61.00
2019-03-29T19:27:59.671Z,61.20
2019-03-29T19:30:21.943Z,61.40
2019-03-29T19:32:42.601Z,61.40
2019-03-29T19:35:03.379Z,61.50
2019-03-29T19:37:32.125Z,63.00
2019-03-29T19:39:52.786Z,63.20
2019-03-29T19:42:16.610Z,62.20
2019-03-29T19:44:35.783Z,62.60
2019-03-29T19:46:56.380Z,63.00
2019-03-29T19:49:16.988Z,64.70
2019-03-29T19:51:37.455Z,64.50
2019-03-29T19:54:07.121Z,64.80
2019-03-29T19:56:20.246Z,64.70
2019-03-29T19:58:40.897Z,64.10
2019-03-29T20:01:01.494Z,63.40
2019-03-29T20:03:22.154Z,63.90
2019-03-29T20:05:42.860Z,64.40
2019-03-29T20:08:03.537Z,64.60
2019-03-29T20:10:24.419Z,64.90
2019-03-29T20:12:44.961Z,65.30
2019-03-29T20:15:06.655Z,65.60
2019-03-29T20:17:27.969Z,66.20
2019-03-29T20:19:48.631Z,66.50
2019-03-29T20:22:09.256Z,66.70
2019-03-29T20:24:29.743Z,66.70
2019-03-29T20:26:50.434Z,66.80
2019-03-29T20:29:10.965Z,67.20
2019-03-29T20:31:33.616Z,67.30
2019-03-29T20:33:54.115Z,68.00
2019-03-29T20:36:22.354Z,67.10
2019-03-29T20:38:37.217Z,66.80
2019-03-29T20:40:57.764Z,66.90
2019-03-29T20:43:18.301Z,66.20
2019-03-29T20:45:38.894Z,66.70
2019-03-29T20:47:59.547Z,66.50
2019-03-29T20:50:20.288Z,66.80
2019-03-29T20:52:40.939Z,67.40
2019-03-29T20:55:01.500Z,68.60
2019-03-29T20:57:21.959Z,68.60
2019-03-29T20:59:42.600Z,68.60
2019-03-29T21:02:03.127Z,68.80
2019-03-29T21:04:23.754Z,68.50
2019-03-29T21:06:44.277Z,68.30
2019-03-29T21:09:07.093Z,68.90
2019-03-29T21:11:27.527Z,69.10
2019-03-29T21:13:48.291Z,69.40
2019-03-29T21:16:08.943Z,69.90
2019-03-29T21:18:29.550Z,71.00
2019-03-29T21:20:50.086Z,70.10
2019-03-29T21:23:10.716Z,70.60
2019-03-29T21:25:31.172Z,71.20
2019-03-29T21:27:52.033Z,71.40
2019-03-29T21:30:13.301Z,71.80
2019-03-29T21:32:33.839Z,72.40
2019-03-29T21:34:54.317Z,72.30
2019-03-29T21:37:14.904Z,72.50
2019-03-29T21:39:35.485Z,72.90
2019-03-29T21:41:56.157Z,73.20
2019-03-29T21:44:16.642Z,73.80
2019-03-29T21:46:37.118Z,73.50
2019-03-29T21:49:01.635Z,73.50
2019-03-29T21:51:23.261Z,73.80
2019-03-29T21:53:45.151Z,74.10
2019-03-29T21:56:05.752Z,74.70
2019-03-29T21:58:26.235Z,75.30
2019-03-29T22:00:47.763Z,76.00
2019-03-29T22:03:10.320Z,76.40
2019-03-29T22:05:30.692Z,75.60
2019-03-29T22:07:51.234Z,76.30
2019-03-29T22:10:12.066Z,76.20
2019-03-29T22:12:32.751Z,76.70
2019-03-29T22:14:57.115Z,76.70
2019-03-29T22:17:18.710Z,76.70
2019-03-29T22:19:39.303Z,77.00
2019-03-29T22:21:59.829Z,77.30
2019-03-29T22:24:20.307Z,77.60
2019-03-29T22:26:40.810Z,77.80
2019-03-29T22:29:02.479Z,77.70
2019-03-29T22:31:22.963Z,78.40
2019-03-29T22:33:43.535Z,78.00
2019-03-29T22:36:04.088Z,78.20
2019-03-29T22:38:24.709Z,78.50
2019-03-29T22:40:45.318Z,78.60
2019-03-29T22:43:07.411Z,78.60
2019-03-29T22:45:27.640Z,79.00
2019-03-29T22:47:48.142Z,79.10
2019-03-29T22:50:09.150Z,79.50
2019-03-29T22:52:30.758Z,79.50
2019-03-29T22:54:51.287Z,79.70
2019-03-29T22:57:12.556Z,80.00
2019-03-29T22:59:33.129Z,80.30
2019-03-29T23:01:53.962Z,80.30
2019-03-29T23:04:14.644Z,81.10
2019-03-29T23:06:35.588Z,80.80
2019-03-29T23:08:56.234Z,80.90
2019-03-29T23:11:16.981Z,81.00
2019-03-29T23:13:37.543Z,80.80
2019-03-29T23:15:58.143Z,80.70
2019-03-29T23:18:19.090Z,80.90
2019-03-29T23:20:40.104Z,81.30
2019-03-29T23:23:00.693Z,81.40
2019-03-29T23:25:21.243Z,82.10
2019-03-29T23:27:41.831Z,82.60
2019-03-29T23:30:04.170Z,82.90
2019-03-29T23:32:24.290Z,82.90
2019-03-29T23:34:44.906Z,82.80
2019-03-29T23:37:05.652Z,83.00
2019-03-29T23:39:26.117Z,83.00
2019-03-29T23:41:47.056Z,83.10
2019-03-29T23:44:07.733Z,83.40
2019-03-29T23:46:28.211Z,83.60
2019-03-29T23:48:48.754Z,84.10
2019-03-29T23:51:09.213Z,84.40
2019-03-29T23:53:29.750Z,84.50
2019-03-29T23:55:50.307Z,84.40
2019-03-29T23:58:10.791Z,84.40
